Daisinmaru No.11 — JK5352 — position and weather

sailwx.info

Track history (hours):
 
Tides and Currents Weather Stations Pressure Air Temp Water Temp Dewpoint Dewpoint Depression Visibility Wind Speed Wind Dir Waves Ship Positions

Daisinmaru No.11

Last reported at 2016-Jul-23 03:22 UTC. Time now 2016-Jul-24 14:42 UTC.
Position N 35°28' E 139°60'.

Length 52 m; draft 5.2 m.

Type: Cargo ship. MMSI: 431000667.

Date/timePositionNaut miles runAvg speedWind from/ knotsBaromVisibWave heightAir tempDewpointWater temp
2016-Jul-23 03:22N 35°28' E 139°60'3 3.8
2016-Jul-23 02:33N 35°29' E 139°56'9 8.9
2016-Jul-23 01:33N 35°30' E 139°45'2 2.4
2016-Jul-23 00:33N 35°29' E 139°43'0 0.0
2016-Jul-22 23:33N 35°29' E 139°43'0 0.0
2016-Jul-22 22:33N 35°29' E 139°43'8 8.5
2016-Jul-22 21:33N 35°29' E 139°53'6 0.1
2016-Jul-21 00:34N 35°27' E 139°60'0 0.0
2016-Jul-20 23:33N 35°27' E 139°60'0 0.0
2016-Jul-20 22:33N 35°27' E 139°60'0 0.1
2016-Jul-20 21:33N 35°27' E 139°60'0 0.0
2016-Jul-20 08:34N 35°27' E 139°60'1 1.3
2016-Jul-20 07:33N 35°29' E 139°59'9 9.1
2016-Jul-20 06:34N 35°30' E 139°48'4 4.5
2016-Jul-20 05:34N 35°29' E 139°43'0 0.0
2016-Jul-20 04:34N 35°29' E 139°43'0 0.0
2016-Jul-20 03:33N 35°29' E 139°43'3 3.1
2016-Jul-20 02:33N 35°31' E 139°46'1010.5
2016-Jul-20 01:33N 35°29' E 139°59'1 1.3
2016-Jul-20 00:33N 35°28' E 139°60'0 0.0
2016-Jul-19 23:33N 35°28' E 139°60'0 0.0
2016-Jul-19 10:06N 35°28' E 139°60'0 0.0
2016-Jul-19 09:33N 35°28' E 139°60'4 3.6
2016-Jul-19 08:33N 35°29' E 139°56'10 9.7
2016-Jul-19 07:33N 35°27' E 139°44'4 1.4
2016-Jul-19 04:34N 35°28' E 139°39'0 0.0
2016-Jul-19 03:33N 35°28' E 139°39'0 0.0
2016-Jul-19 02:33N 35°28' E 139°39'0 0.0
2016-Jul-19 01:33N 35°28' E 139°39'0 0.0
2016-Jul-19 00:34N 35°28' E 139°39'0 0.0
2016-Jul-18 23:33N 35°28' E 139°39'0 0.0
2016-Jul-18 22:33N 35°28' E 139°39'  
2016-Jul-15 04:33N 35°28' E 139°39'0 0.0
2016-Jul-15 03:33N 35°28' E 139°39'0 0.0
2016-Jul-15 02:33N 35°28' E 139°39'0 0.0
2016-Jul-15 01:33N 35°28' E 139°39'0 0.0
2016-Jul-15 00:33N 35°28' E 139°39'0 0.0
2016-Jul-14 23:33N 35°28' E 139°39'2 1.9
2016-Jul-14 22:33N 35°27' E 139°41'9 9.5
2016-Jul-14 21:33N 35°30' E 139°52'  
Track history (hours):
 
Tides and Currents Weather Stations Pressure Air Temp Water Temp Dewpoint Dewpoint Depression Visibility Wind Speed Wind Dir Waves Ship Positions

Daisinmaru No.11

Last reported at 2016-Jul-23 03:22 UTC. Time now 2016-Jul-24 14:42 UTC.
Position N 35°28' E 139°60'.

Length 52 m; draft 5.2 m.

Type: Cargo ship. MMSI: 431000667.

Date/timePositionNaut miles runAvg speedWind from/ knotsBaromVisibWave heightAir tempDewpointWater temp
2016-Jul-23 03:22N 35°28' E 139°60'3 3.8
2016-Jul-23 02:33N 35°29' E 139°56'9 8.9
2016-Jul-23 01:33N 35°30' E 139°45'2 2.4
2016-Jul-23 00:33N 35°29' E 139°43'0 0.0
2016-Jul-22 23:33N 35°29' E 139°43'0 0.0
2016-Jul-22 22:33N 35°29' E 139°43'8 8.5
2016-Jul-22 21:33N 35°29' E 139°53'6 0.1
2016-Jul-21 00:34N 35°27' E 139°60'0 0.0
2016-Jul-20 23:33N 35°27' E 139°60'0 0.0
2016-Jul-20 22:33N 35°27' E 139°60'0 0.1
2016-Jul-20 21:33N 35°27' E 139°60'0 0.0
2016-Jul-20 08:34N 35°27' E 139°60'1 1.3
2016-Jul-20 07:33N 35°29' E 139°59'9 9.1
2016-Jul-20 06:34N 35°30' E 139°48'4 4.5
2016-Jul-20 05:34N 35°29' E 139°43'0 0.0
2016-Jul-20 04:34N 35°29' E 139°43'0 0.0
2016-Jul-20 03:33N 35°29' E 139°43'3 3.1
2016-Jul-20 02:33N 35°31' E 139°46'1010.5
2016-Jul-20 01:33N 35°29' E 139°59'1 1.3
2016-Jul-20 00:33N 35°28' E 139°60'0 0.0
2016-Jul-19 23:33N 35°28' E 139°60'0 0.0
2016-Jul-19 10:06N 35°28' E 139°60'0 0.0
2016-Jul-19 09:33N 35°28' E 139°60'4 3.6
2016-Jul-19 08:33N 35°29' E 139°56'10 9.7
2016-Jul-19 07:33N 35°27' E 139°44'4 1.4
2016-Jul-19 04:34N 35°28' E 139°39'0 0.0
2016-Jul-19 03:33N 35°28' E 139°39'0 0.0
2016-Jul-19 02:33N 35°28' E 139°39'0 0.0
2016-Jul-19 01:33N 35°28' E 139°39'0 0.0
2016-Jul-19 00:34N 35°28' E 139°39'0 0.0
2016-Jul-18 23:33N 35°28' E 139°39'0 0.0
2016-Jul-18 22:33N 35°28' E 139°39'  
2016-Jul-15 04:33N 35°28' E 139°39'0 0.0
2016-Jul-15 03:33N 35°28' E 139°39'0 0.0
2016-Jul-15 02:33N 35°28' E 139°39'0 0.0
2016-Jul-15 01:33N 35°28' E 139°39'0 0.0
2016-Jul-15 00:33N 35°28' E 139°39'0 0.0
2016-Jul-14 23:33N 35°28' E 139°39'2 1.9
2016-Jul-14 22:33N 35°27' E 139°41'9 9.5
2016-Jul-14 21:33N 35°30' E 139°52'  

Dump ship's entire track history